Thunder radar more information blitzortung!


Radar de pluja more information rain snow radar


Visita la nostra xarxa de llocs de meteo:

Template documentation
and downloads

And another site



No particular awareness of the weather is required.    There are no Weather-warnings

Pagina Historial Weather Underground text

Diari Resum Agost 1, 2017 Unitats:  Mètric    Imperial   Tant
« Previous Dia
SegĂźent Dia »
Diari Setmana Mensual Anual Personalitzada
  Maxima: Minima: Media:
Temperatura: -17.8 °C -5.6 °C -2.9 °C
Punt de rosada: -17.8 °C -8.9 °C -6.4 °C
Humitat: Humidity % 38 % 69 %
Wind Speed: 0 km/h 0 km/h 7.9 km/h
RĂ fegues de vent: 0 km/h - -
Vent:- - SE
Pression baro: 0 hPa 34198.6 hPa -
Precipitacions: 0 mm    
Historical Graphs
 
 
Dades de taula per Agost 1, 2017
Temps Temperatura Punt de rosada Pression baro Vent Wind Speed RĂ fegues de vent Humitat Rainfall Rate (Hourly)
-17.8 °C -17.8 °C 0 hPa Calm     Humidity % 0 mm
11:01 -4.1 °C -6.1 °C 34198.6 hPa ENE 11.9 km/h   81 % 0 mm
11:06 -2.9 °C -6.1 °C 34293.4 hPa NNW 6 km/h 6 km/h 71 % 0 mm
11:11 -2.7 °C -6.2 °C 34293.4 hPa South 9 km/h 9 km/h 69 % 0 mm
11:16 -2.6 °C -6 °C 34293.4 hPa SW 9 km/h 9 km/h 69 % 0 mm
11:21 -2.6 °C -6.1 °C 34293.4 hPa SSW 6 km/h 6 km/h 69 % 0 mm
11:26 -2.6 °C -6.1 °C 34293.4 hPa WSW 6 km/h 6 km/h 69 % 0 mm
11:31 -2.7 °C -6.1 °C 34293.4 hPa SW 11.9 km/h 11.9 km/h 69 % 0 mm
11:36 -2.7 °C -6.2 °C 34327.3 hPa North 5.1 km/h 5.1 km/h 69 % 0 mm
11:41 -2.7 °C -6.2 °C 34327.3 hPa SW 6 km/h 6 km/h 69 % 0 mm
11:46 -2.7 °C -6.2 °C 34327.3 hPa WSW 6 km/h 6 km/h 69 % 0 mm
11:51 -2.7 °C -6.2 °C 34327.3 hPa SW 9 km/h 9 km/h 69 % 0 mm
11:56 -2.6 °C -6.1 °C 34327.3 hPa West 6 km/h 6 km/h 69 % 0 mm
12:01 -2.4 °C -5.9 °C 34327.3 hPa WSW 6.3 km/h 6.3 km/h 69 % 0 mm
12:06 -2.3 °C -5.9 °C 34327.3 hPa West 3.1 km/h   68 % 0 mm
12:11 -2.3 °C -5.9 °C 34327.3 hPa West 11.9 km/h 11.9 km/h 68 % 0 mm
12:16 -2.3 °C -6.1 °C 34327.3 hPa WSW 6 km/h 6 km/h 67 % 0 mm
12:21 -2.3 °C -6 °C 34327.3 hPa WSW 6.8 km/h 6.8 km/h 67 % 0 mm
12:26 -2.3 °C -6.1 °C 34327.3 hPa NE 6 km/h 6 km/h 67 % 0 mm
12:27 -2.3 °C -6.1 °C 34327.3 hPa NE 6 km/h 6 km/h 67 % 0 mm
12:32 -2.4 °C -6.1 °C 34327.3 hPa ESE 11.9 km/h 11.9 km/h 67 % 0 mm
12:37 -2.7 °C -6.2 °C 34327.3 hPa ESE 9 km/h 9 km/h 68 % 0 mm
12:42 -2.8 °C -6.3 °C 34327.3 hPa ENE 9.8 km/h 9.8 km/h 69 % 0 mm
12:47 -2.8 °C -6.1 °C 34256.2 hPa NNE 6 km/h 6 km/h 70 % 0 mm
12:52 -2.8 °C -6.2 °C 34256.2 hPa NNE 15 km/h 15 km/h 69 % 0 mm
12:57 -2.8 °C -6.2 °C 34256.2 hPa North 15 km/h 15 km/h 69 % 0 mm
13:02 -2.7 °C -6.2 °C 34256.2 hPa NNE 11.9 km/h 11.9 km/h 69 % 0 mm
13:07 -2.8 °C -6.2 °C 34256.2 hPa ENE 9 km/h 9 km/h 70 % 0 mm
13:12 -2.8 °C -6.2 °C 34256.2 hPa NW 6 km/h 6 km/h 70 % 0 mm
13:17 -2.7 °C -6 °C 34327.3 hPa ENE 6 km/h 6 km/h 70 % 0 mm
13:22 -2.7 °C -5.9 °C 34327.3 hPa SW 3.1 km/h 3.1 km/h 70 % 0 mm
13:27 -2.5 °C -5.9 °C 34327.3 hPa South 6.3 km/h 6.3 km/h 69 % 0 mm
13:32 -2.1 °C -5.7 °C 34327.3 hPa SSE 9 km/h 9 km/h 68 % 0 mm
13:37 -1.9 °C -5.6 °C 34327.3 hPa NNE 9.8 km/h 9.8 km/h 68 % 0 mm
13:38 -2 °C -5.7 °C 34327.3 hPa ENE 7.6 km/h 7.6 km/h 67 % 0 mm
13:42 -2.3 °C -6 °C 34327.3 hPa East 9 km/h 9 km/h 67 % 0 mm
13:47 -2.2 °C -5.9 °C 34256.2 hPa ESE 11.9 km/h 11.9 km/h 67 % 0 mm
13:52 -2.1 °C -6.1 °C 34256.2 hPa East 11.9 km/h 11.9 km/h 65 % 0 mm
13:57 -1.9 °C -5.9 °C 34256.2 hPa ESE 6 km/h 6 km/h 65 % 0 mm
14:02 -1.8 °C -6 °C 34293.4 hPa ESE 11.9 km/h 11.9 km/h 64 % 0 mm
14:07 -1.8 °C -6 °C 34293.4 hPa ESE 15 km/h 15 km/h 64 % 0 mm
14:12 -1.6 °C -5.9 °C 34293.4 hPa NNE 9 km/h 9 km/h 63 % 0 mm
14:17 -1.3 °C -5.8 °C 34256.2 hPa ENE 6 km/h 6 km/h 62 % 0 mm
14:22 -1 °C -5.8 °C 34256.2 hPa South 3.7 km/h 3.7 km/h 60 % 0 mm
14:27 -1 °C -5.7 °C 34256.2 hPa NNE 9 km/h 9 km/h 61 % 0 mm
14:32 -1 °C -5.8 °C 34256.2 hPa East 6.3 km/h 6.3 km/h 60 % 0 mm
14:37 -0.8 °C -5.9 °C 34256.2 hPa NNE 9 km/h 9 km/h 58 % 0 mm
14:42 -0.4 °C -5.7 °C 34256.2 hPa East 9 km/h 9 km/h 57 % 0 mm
14:47 -0.2 °C -5.7 °C 34256.2 hPa NNE 16.6 km/h 16.6 km/h 56 % 0 mm
14:52 0.1 °C -5.6 °C 34256.2 hPa NE 11.9 km/h 11.9 km/h 55 % 0 mm
14:57 0.2 °C -5.8 °C 34256.2 hPa ENE 20.9 km/h 20.9 km/h 53 % 0 mm
15:02 0.2 °C -5.8 °C 34256.2 hPa NNW 14.5 km/h 14.5 km/h 53 % 0 mm
15:07 0.3 °C -6.4 °C 34256.2 hPa WSW 19.6 km/h 19.6 km/h 49 % 0 mm
15:12 0.4 °C -6.8 °C 34256.2 hPa SSW 11.9 km/h 11.9 km/h 46 % 0 mm
15:17 0.6 °C -7.2 °C 34256.2 hPa SSE 15 km/h 15 km/h 44 % 0 mm
15:22 0.5 °C -7.4 °C 34256.2 hPa West 11.9 km/h 11.9 km/h 43 % 0 mm
15:27 0.4 °C -7.7 °C 34256.2 hPa West 26.9 km/h 26.9 km/h 42 % 0 mm
15:32 0.2 °C -7.9 °C 34256.2 hPa South 15 km/h 15 km/h 42 % 0 mm
15:37 0.1 °C -7.7 °C 34256.2 hPa WSW 15 km/h 15 km/h 43 % 0 mm
15:42 0.3 °C -8.2 °C 34256.2 hPa WSW 29.8 km/h 29.8 km/h 40 % 0 mm
15:47 0.3 °C -8.7 °C 34256.2 hPa WNW 20.9 km/h 20.9 km/h 38 % 0 mm
15:52 0.2 °C -8.7 °C 34256.2 hPa NW 15 km/h 15 km/h 38 % 0 mm
15:57 0.1 °C -8.6 °C 34256.2 hPa West 17.9 km/h 17.9 km/h 39 % 0 mm
16:02 0 °C -8.9 °C 34327.3 hPa WSW 14 km/h 14 km/h 38 % 0 mm
16:07 -0.1 °C -8.8 °C 34327.3 hPa WNW 15 km/h 15 km/h 39 % 0 mm
16:12 -0.1 °C -8.8 °C 34327.3 hPa SW 15 km/h 15 km/h 39 % 0 mm
16:17 -0.2 °C -8.8 °C 34293.4 hPa WSW 14 km/h 14 km/h 39 % 0 mm
16:22 -0.2 °C -8.5 °C 34293.4 hPa WSW 15 km/h 15 km/h 41 % 0 mm
16:27 -0.3 °C -8.6 °C 34293.4 hPa West 15 km/h 15 km/h 41 % 0 mm
16:32 -0.2 °C -8.4 °C 34361.1 hPa SW 15.6 km/h 15.6 km/h 41 % 0 mm
16:37 -0.1 °C -8.2 °C 34361.1 hPa SW 11.9 km/h 11.9 km/h 42 % 0 mm
16:42 -0.2 °C -8 °C 34361.1 hPa West 9 km/h 9 km/h 43 % 0 mm
16:47 -0.4 °C -7.7 °C 34361.1 hPa SW 17.9 km/h 17.9 km/h 46 % 0 mm
16:52 -0.7 °C -7.3 °C 34361.1 hPa WSW 17.9 km/h 17.9 km/h 49 % 0 mm
16:57 -1 °C -7.3 °C 34361.1 hPa NE 11.9 km/h 11.9 km/h 51 % 0 mm
17:02 -1.1 °C -7 °C 34327.3 hPa West 9 km/h 9 km/h 53 % 0 mm
17:03 -1.1 °C -7 °C 34327.3 hPa West 10.3 km/h 10.3 km/h 53 % 0 mm
17:08 -1.2 °C -6.9 °C 34327.3 hPa ESE 6 km/h 6 km/h 54 % 0 mm
17:13 -1.4 °C -6.5 °C 34327.3 hPa ESE 11.9 km/h 11.9 km/h 58 % 0 mm
17:18 -1.7 °C -6.6 °C 34327.3 hPa NNE 11.1 km/h 11.1 km/h 59 % 0 mm
17:23 -1.8 °C -6.4 °C 34327.3 hPa East 11.9 km/h 11.9 km/h 61 % 0 mm
17:28 -2.1 °C -6.3 °C 34327.3 hPa ENE 11.9 km/h 11.9 km/h 64 % 0 mm
17:33 -2.3 °C -6.4 °C 34327.3 hPa NE 11.9 km/h 11.9 km/h 64 % 0 mm
17:38 -2.4 °C -6.4 °C 34327.3 hPa ENE 11.9 km/h 11.9 km/h 65 % 0 mm
17:43 -2.5 °C -6.3 °C 34327.3 hPa NE 14.5 km/h 14.5 km/h 66 % 0 mm
17:48 -2.6 °C -6.3 °C 34327.3 hPa SE 10.3 km/h 10.3 km/h 67 % 0 mm
17:53 -2.7 °C -6.3 °C 34327.3 hPa NNE 11.9 km/h 11.9 km/h 68 % 0 mm
17:58 -2.8 °C -6.3 °C 34327.3 hPa NE 6 km/h 6 km/h 69 % 0 mm
18:03 -2.9 °C -6.2 °C 34327.3 hPa ENE 11.9 km/h 11.9 km/h 70 % 0 mm
18:08 -2.9 °C -6.1 °C 34327.3 hPa NNE 11.9 km/h 11.9 km/h 71 % 0 mm
18:13 -2.9 °C -6.1 °C 34327.3 hPa ENE 9 km/h 9 km/h 71 % 0 mm
18:18 -2.9 °C -6.1 °C 34327.3 hPa East 9 km/h 9 km/h 71 % 0 mm
18:23 -2.9 °C -6.1 °C 34327.3 hPa NNE 15 km/h 15 km/h 71 % 0 mm
18:28 -2.9 °C -6.1 °C 34327.3 hPa East 12.7 km/h 12.7 km/h 71 % 0 mm
18:33 -2.9 °C -6.1 °C 34293.4 hPa North 9.3 km/h 9.3 km/h 71 % 0 mm
18:38 -2.9 °C -5.9 °C 34293.4 hPa NNE 11.9 km/h 11.9 km/h 72 % 0 mm
18:43 -2.9 °C -5.7 °C 34293.4 hPa East 9.8 km/h 9.8 km/h 74 % 0 mm
18:48 -3 °C -5.8 °C 34256.2 hPa ENE 11.9 km/h 11.9 km/h 74 % 0 mm
18:53 -3.1 °C -5.8 °C 34256.2 hPa North 6 km/h 6 km/h 74 % 0 mm
18:58 -3.1 °C -5.6 °C 34256.2 hPa SE 15 km/h 15 km/h 76 % 0 mm
19:03 -3 °C -5.6 °C 34293.4 hPa East 9 km/h 9 km/h 76 % 0 mm
19:08 -3.1 °C -5.5 °C 34293.4 hPa ESE 9 km/h 9 km/h 77 % 0 mm
19:13 -3.1 °C -5.5 °C 34293.4 hPa East 9 km/h 9 km/h 77 % 0 mm
19:15 -4.6 °C -6.2 °C 34428.8 hPa SW 2.6 km/h 2.6 km/h 84 % 0 mm
19:18 -3.1 °C -5.7 °C 34256.2 hPa ENE 17.9 km/h 17.9 km/h 76 % 0 mm
19:23 -3.2 °C -5.7 °C 34256.2 hPa NNE 15 km/h 15 km/h 77 % 0 mm
19:25 -4.6 °C -6.1 °C 34428.8 hPa Calm   2.6 km/h 85 % 0 mm
19:28 -3.2 °C -5.7 °C 34256.2 hPa NNE 11.9 km/h 11.9 km/h 77 % 0 mm
19:33 -3.2 °C -5.4 °C 34256.2 hPa ENE 17.9 km/h 17.9 km/h 78 % 0 mm
19:35 -4.6 °C -6.1 °C 34428.8 hPa Calm     85 % 0 mm
19:38 -3.2 °C -5.4 °C 34256.2 hPa NNE 15 km/h 15 km/h 78 % 0 mm
19:43 -3.2 °C -5.4 °C 34256.2 hPa ENE 9 km/h 9 km/h 78 % 0 mm
19:45 -4.8 °C -6.3 °C 34428.8 hPa Calm   2.6 km/h 85 % 0 mm
19:48 -3.2 °C -5.6 °C 34256.2 hPa ESE 14 km/h 14 km/h 77 % 0 mm
19:53 -3.2 °C -5.6 °C 34256.2 hPa ENE 14 km/h 14 km/h 77 % 0 mm
19:55 -4.8 °C -6.3 °C 34428.8 hPa SW 5.1 km/h 5.1 km/h 85 % 0 mm
19:58 -3.1 °C -5.5 °C 34256.2 hPa North 9 km/h 9 km/h 77 % 0 mm
20:03 -3.1 °C -5.7 °C 34256.2 hPa ENE 11.9 km/h 11.9 km/h 76 % 0 mm
20:05 -4.7 °C -6.1 °C 34395 hPa Calm     86 % 0 mm
20:08 -3.1 °C -5.7 °C 34256.2 hPa North 15 km/h 15 km/h 76 % 0 mm
20:13 -3.1 °C -5.7 °C 34256.2 hPa NNE 9.8 km/h 9.8 km/h 76 % 0 mm
20:15 -4.8 °C -6.2 °C 34395 hPa Calm     86 % 0 mm
20:18 -3.1 °C -5.7 °C 34256.2 hPa ENE 9 km/h 9 km/h 76 % 0 mm
20:23 -3.1 °C -5.7 °C 34256.2 hPa NNE 9 km/h 9 km/h 76 % 0 mm
20:25 -4.7 °C -6.1 °C 34395 hPa NNW 2.6 km/h 5.1 km/h 86 % 0 mm
20:28 -3.1 °C -5.7 °C 34256.2 hPa NE 6 km/h 6 km/h 76 % 0 mm
20:33 -3.1 °C -5.7 °C 34293.4 hPa NE 9 km/h 9 km/h 76 % 0 mm
20:35 -4.9 °C -6.3 °C 34395 hPa NNE 2.6 km/h 7.7 km/h 86 % 0 mm
20:38 -3.1 °C -5.7 °C 34293.4 hPa NNE 9 km/h 9 km/h 76 % 0 mm
20:43 -3.2 °C -5.7 °C 34293.4 hPa NNE 11.9 km/h 11.9 km/h 76 % 0 mm
20:45 -5 °C -6.3 °C 34395 hPa Calm     86 % 0 mm
20:48 -3.2 °C -5.7 °C 34327.3 hPa NNE 6 km/h 6 km/h 76 % 0 mm
20:53 -3.2 °C -5.8 °C 34327.3 hPa NNE 6 km/h 6 km/h 76 % 0 mm
20:55 -5.1 °C -6.5 °C 34361.1 hPa Calm   2.6 km/h 86 % 0 mm
20:58 -3.2 °C -5.8 °C 34327.3 hPa Calm     76 % 0 mm
21:03 -3.2 °C -5.8 °C 34327.3 hPa Calm     76 % 0 mm
21:05 -5.2 °C -6.7 °C 34395 hPa Calm   2.6 km/h 85 % 0 mm
21:08 -3.3 °C -5.7 °C 34327.3 hPa NE 3.1 km/h 3.1 km/h 77 % 0 mm
21:13 -3.3 °C -5.7 °C 34327.3 hPa Calm     77 % 0 mm
21:15 -5.2 °C -6.6 °C 34395 hPa Calm     85 % 0 mm
21:18 -3.3 °C -5.7 °C 34327.3 hPa Calm     77 % 0 mm
21:23 -3.4 °C -5.8 °C 34327.3 hPa ESE 6 km/h 6 km/h 77 % 0 mm
21:25 -5.3 °C -6.8 °C 34395 hPa SSW 2.6 km/h 5.1 km/h 85 % 0 mm
21:28 -3.4 °C -5.7 °C 34327.3 hPa East 6.8 km/h 6.8 km/h 78 % 0 mm
21:33 -3.4 °C -5.7 °C 34327.3 hPa ESE 7.6 km/h 7.6 km/h 78 % 0 mm
21:35 -5.2 °C -6.9 °C 34395 hPa NNE 5.1 km/h 5.1 km/h 83 % 0 mm
21:38 -3.4 °C -5.7 °C 34327.3 hPa ENE 3.1 km/h 3.1 km/h 78 % 0 mm
21:43 -3.6 °C -5.8 °C 34327.3 hPa NE 3.1 km/h   78 % 0 mm
21:45 -5.2 °C -7.2 °C 34395 hPa North 5.1 km/h 12.9 km/h 80 % 0 mm
21:48 -3.6 °C -5.8 °C 34327.3 hPa ENE 3.7 km/h 3.7 km/h 78 % 0 mm
21:53 -3.6 °C -5.9 °C 34327.3 hPa NE 6 km/h 6 km/h 78 % 0 mm
21:55 -5.1 °C -7.4 °C 34395 hPa NNE 7.7 km/h 15.6 km/h 77 % 0 mm
21:58 -3.6 °C -5.9 °C 34327.3 hPa NNE 3.7 km/h 3.7 km/h 78 % 0 mm
22:03 -3.7 °C -5.9 °C 34361.1 hPa SSW 3.1 km/h 3.1 km/h 78 % 0 mm
22:05 -5.1 °C -7.7 °C 34395 hPa NNE 5.1 km/h 18.2 km/h 75 % 0 mm
22:07 -3.7 °C -6 °C 34361.1 hPa Calm     78 % 0 mm
22:08 -3.7 °C -6 °C 34361.1 hPa Calm     78 % 0 mm
22:09 -3.7 °C -6 °C 34361.1 hPa Calm     78 % 0 mm
22:12 -3.7 °C -6 °C 34361.1 hPa Calm     78 % 0 mm
22:15 -5 °C -7.8 °C 34395 hPa North 5.1 km/h 15.6 km/h 73 % 0 mm
22:17 -3.8 °C -5.9 °C 34361.1 hPa Calm     79 % 0 mm
22:18 -3.8 °C -5.9 °C 34361.1 hPa Calm     79 % 0 mm
22:22 -3.8 °C -6 °C 34361.1 hPa Calm     79 % 0 mm
22:25 -5 °C -7.8 °C 34395 hPa NNW 5.1 km/h 12.9 km/h 73 % 0 mm
22:27 -3.8 °C -6 °C 34361.1 hPa ENE 3.1 km/h 3.1 km/h 79 % 0 mm
22:32 -3.9 °C -6.1 °C 34395 hPa Calm     79 % 0 mm
22:35 -5.1 °C -8 °C 34395 hPa NNW 5.1 km/h 10.3 km/h 72 % 0 mm
22:37 -3.9 °C -6.1 °C 34395 hPa NE 6 km/h 6 km/h 79 % 0 mm
22:42 -3.9 °C -5.9 °C 34395 hPa NE 5.6 km/h 5.6 km/h 81 % 0 mm
22:45 -5.3 °C -8 °C 34395 hPa Calm   5.1 km/h 74 % 0 mm
22:47 -4 °C -5.9 °C 34395 hPa NE 9 km/h 9 km/h 81 % 0 mm
22:52 -4.1 °C -6 °C 34395 hPa NE 7.6 km/h 7.6 km/h 81 % 0 mm
22:55 -5.3 °C -8 °C 34395 hPa Calm   7.7 km/h 74 % 0 mm
22:57 -4.1 °C -5.9 °C 34395 hPa NE 3.1 km/h 3.1 km/h 82 % 0 mm
23:02 -4.2 °C -6 °C 34395 hPa NE 6 km/h 6 km/h 82 % 0 mm
23:05 -5.4 °C -8 °C 34361.1 hPa Calm   5.1 km/h 75 % 0 mm
23:07 -4.2 °C -6 °C 34395 hPa East 3.1 km/h 3.1 km/h 82 % 0 mm
23:12 -4.2 °C -6 °C 34395 hPa NNE 6 km/h 6 km/h 82 % 0 mm
23:15 -5.5 °C -7.8 °C 34361.1 hPa Calm   5.1 km/h 77 % 0 mm
23:17 -4.2 °C -6.1 °C 34428.8 hPa North 6 km/h 6 km/h 82 % 0 mm
23:22 -4.2 °C -6.1 °C 34428.8 hPa NW 3.1 km/h   82 % 0 mm
23:25 -5.5 °C -7.6 °C 34395 hPa Calm     79 % 0 mm
23:27 -4.3 °C -6 °C 34428.8 hPa NW 3.1 km/h   83 % 0 mm
23:32 -4.3 °C -6.1 °C 34428.8 hPa SW 4.2 km/h 4.2 km/h 83 % 0 mm
23:35 -5.5 °C -7.4 °C 34395 hPa Calm     81 % 0 mm
23:37 -4.4 °C -6.2 °C 34428.8 hPa SW 3.1 km/h 3.1 km/h 83 % 0 mm
23:42 -4.4 °C -6.2 °C 34428.8 hPa Calm     83 % 0 mm
23:45 -5.6 °C -7.3 °C 34395 hPa Calm   5.1 km/h 82 % 0 mm
23:47 -4.4 °C -6.1 °C 34428.8 hPa Calm     83 % 0 mm
23:52 -4.4 °C -6.1 °C 34428.8 hPa Calm     84 % 0 mm
23:55 -5.6 °C -7.4 °C 34395 hPa Calm   2.6 km/h 82 % 0 mm
23:57 -4.4 °C -6.1 °C 34428.8 hPa Calm     84 % 0 mm
Meteo Sesrovires
Elogis d' Weather Underground - 2 mb

Guio original per  Jim McMurry - jmcmurry@mwt.net Adaptat per a la plantilla per  Wim van der Kuil - Leuven-Template.eu

Trobareu la nostra informacio del temps tambe a:

Weather Underground

AWEKAS